sensor_id;sensor_type;location;lat;lon;timestamp;temperature;humidity
3912;DHT22;1971;51.778;10.330;2023-02-28T00:00:40;-2.60;99.90
3912;DHT22;1971;51.778;10.330;2023-02-28T00:03:10;-2.50;99.90
3912;DHT22;1971;51.778;10.330;2023-02-28T00:05:44;-2.50;99.90
3912;DHT22;1971;51.778;10.330;2023-02-28T00:08:14;-2.40;99.90
3912;DHT22;1971;51.778;10.330;2023-02-28T00:10:44;-2.30;99.90
3912;DHT22;1971;51.778;10.330;2023-02-28T00:13:14;-2.30;99.90
3912;DHT22;1971;51.778;10.330;2023-02-28T00:15:47;-2.50;99.90
3912;DHT22;1971;51.778;10.330;2023-02-28T00:18:16;-2.70;99.90
3912;DHT22;1971;51.778;10.330;2023-02-28T00:20:46;-2.80;99.90
3912;DHT22;1971;51.778;10.330;2023-02-28T00:23:16;-2.90;99.90
3912;DHT22;1971;51.778;10.330;2023-02-28T00:25:46;-2.70;99.90
3912;DHT22;1971;51.778;10.330;2023-02-28T00:28:16;-2.30;99.90
3912;DHT22;1971;51.778;10.330;2023-02-28T00:30:49;-2.30;99.90
3912;DHT22;1971;51.778;10.330;2023-02-28T00:33:19;-2.50;99.90
3912;DHT22;1971;51.778;10.330;2023-02-28T00:35:49;-2.70;99.90
3912;DHT22;1971;51.778;10.330;2023-02-28T00:38:19;-2.90;99.90
3912;DHT22;1971;51.778;10.330;2023-02-28T00:40:49;-2.90;99.90
3912;DHT22;1971;51.778;10.330;2023-02-28T00:43:18;-3.10;99.90
3912;DHT22;1971;51.778;10.330;2023-02-28T00:45:51;-3.10;99.90
3912;DHT22;1971;51.778;10.330;2023-02-28T00:48:21;-3.10;99.90
3912;DHT22;1971;51.778;10.330;2023-02-28T00:50:52;-3.30;99.90
3912;DHT22;1971;51.778;10.330;2023-02-28T00:53:23;-3.40;99.90
3912;DHT22;1971;51.778;10.330;2023-02-28T00:55:53;-3.40;99.90
3912;DHT22;1971;51.778;10.330;2023-02-28T00:58:23;-3.40;99.90
3912;DHT22;1971;51.778;10.330;2023-02-28T01:00:55;-3.40;99.90
3912;DHT22;1971;51.778;10.330;2023-02-28T01:03:25;-3.00;99.90
3912;DHT22;1971;51.778;10.330;2023-02-28T01:05:55;-2.90;99.90
3912;DHT22;1971;51.778;10.330;2023-02-28T01:08:25;-2.70;99.90
3912;DHT22;1971;51.778;10.330;2023-02-28T01:10:55;-2.80;99.90
3912;DHT22;1971;51.778;10.330;2023-02-28T01:13:25;-2.70;99.90
3912;DHT22;1971;51.778;10.330;2023-02-28T01:15:58;-2.70;99.90
3912;DHT22;1971;51.778;10.330;2023-02-28T01:18:29;-2.70;99.90
3912;DHT22;1971;51.778;10.330;2023-02-28T01:21:03;-2.70;99.90
3912;DHT22;1971;51.778;10.330;2023-02-28T01:23:34;-2.70;99.90
3912;DHT22;1971;51.778;10.330;2023-02-28T01:26:05;-2.50;99.90
3912;DHT22;1971;51.778;10.330;2023-02-28T01:28:38;-2.50;99.90
3912;DHT22;1971;51.778;10.330;2023-02-28T01:31:11;-2.50;99.90
3912;DHT22;1971;51.778;10.330;2023-02-28T01:33:42;-2.50;99.90
3912;DHT22;1971;51.778;10.330;2023-02-28T01:36:13;-3.00;99.90
3912;DHT22;1971;51.778;10.330;2023-02-28T01:38:44;-2.50;99.90
3912;DHT22;1971;51.778;10.330;2023-02-28T01:41:17;-2.50;99.90
3912;DHT22;1971;51.778;10.330;2023-02-28T01:44:03;-2.60;99.90
3912;DHT22;1971;51.778;10.330;2023-02-28T01:46:36;-2.50;99.90
3912;DHT22;1971;51.778;10.330;2023-02-28T01:49:09;-2.50;99.90
3912;DHT22;1971;51.778;10.330;2023-02-28T01:51:46;-2.60;99.90
3912;DHT22;1971;51.778;10.330;2023-02-28T01:54:20;-2.30;99.90
3912;DHT22;1971;51.778;10.330;2023-02-28T01:56:54;-2.40;99.90
3912;DHT22;1971;51.778;10.330;2023-02-28T01:59:29;-2.10;99.90
3912;DHT22;1971;51.778;10.330;2023-02-28T02:02:04;-2.20;99.90
3912;DHT22;1971;51.778;10.330;2023-02-28T02:04:38;-1.90;99.90
3912;DHT22;1971;51.778;10.330;2023-02-28T02:07:09;-1.90;99.90
3912;DHT22;1971;51.778;10.330;2023-02-28T02:09:43;-1.90;99.90
3912;DHT22;1971;51.778;10.330;2023-02-28T02:12:22;-2.00;99.90
3912;DHT22;1971;51.778;10.330;2023-02-28T02:15:02;-2.00;99.90
3912;DHT22;1971;51.778;10.330;2023-02-28T02:17:40;-2.00;99.90
3912;DHT22;1971;51.778;10.330;2023-02-28T02:20:38;-2.10;99.90
3912;DHT22;1971;51.778;10.330;2023-02-28T02:23:44;-2.20;99.90
3912;DHT22;1971;51.778;10.330;2023-02-28T02:26:43;-2.20;99.90
3912;DHT22;1971;51.778;10.330;2023-02-28T02:29:34;-2.40;99.90
3912;DHT22;1971;51.778;10.330;2023-02-28T02:32:27;-2.50;99.90
3912;DHT22;1971;51.778;10.330;2023-02-28T02:35:06;-2.60;99.90
3912;DHT22;1971;51.778;10.330;2023-02-28T02:37:42;-2.80;99.90
3912;DHT22;1971;51.778;10.330;2023-02-28T02:40:19;-2.70;99.90
3912;DHT22;1971;51.778;10.330;2023-02-28T02:42:54;-2.70;1.00
3912;DHT22;1971;51.778;10.330;2023-02-28T02:45:32;-2.70;1.00
3912;DHT22;1971;51.778;10.330;2023-02-28T02:50:42;-2.90;99.90
3912;DHT22;1971;51.778;10.330;2023-02-28T02:53:14;-2.90;99.90
3912;DHT22;1971;51.778;10.330;2023-02-28T02:55:49;-3.60;99.90
3912;DHT22;1971;51.778;10.330;2023-02-28T02:58:26;-3.40;99.90
3912;DHT22;1971;51.778;10.330;2023-02-28T03:00:59;-3.60;99.90
3912;DHT22;1971;51.778;10.330;2023-02-28T03:03:32;-3.60;99.90
3912;DHT22;1971;51.778;10.330;2023-02-28T03:06:05;-4.10;99.90
3912;DHT22;1971;51.778;10.330;2023-02-28T03:08:38;-3.80;99.90
3912;DHT22;1971;51.778;10.330;2023-02-28T03:11:13;-4.10;99.90
3912;DHT22;1971;51.778;10.330;2023-02-28T03:14:06;-4.30;99.90
3912;DHT22;1971;51.778;10.330;2023-02-28T03:19:55;-4.40;99.90
3912;DHT22;1971;51.778;10.330;2023-02-28T03:22:57;-4.40;99.90
3912;DHT22;1971;51.778;10.330;2023-02-28T03:25:33;-4.60;1.00
3912;DHT22;1971;51.778;10.330;2023-02-28T03:28:08;-4.60;1.00
3912;DHT22;1971;51.778;10.330;2023-02-28T03:30:47;-4.40;1.00
3912;DHT22;1971;51.778;10.330;2023-02-28T03:33:23;-4.50;1.00
3912;DHT22;1971;51.778;10.330;2023-02-28T03:35:56;-4.10;1.00
3912;DHT22;1971;51.778;10.330;2023-02-28T03:38:33;-4.20;1.00
3912;DHT22;1971;51.778;10.330;2023-02-28T03:41:08;-4.50;1.00
3912;DHT22;1971;51.778;10.330;2023-02-28T03:43:45;-4.30;1.00
3912;DHT22;1971;51.778;10.330;2023-02-28T03:46:21;-3.90;1.00
3912;DHT22;1971;51.778;10.330;2023-02-28T03:48:57;-3.90;1.00
3912;DHT22;1971;51.778;10.330;2023-02-28T03:51:32;-3.50;1.00
3912;DHT22;1971;51.778;10.330;2023-02-28T03:54:08;-3.30;1.00
3912;DHT22;1971;51.778;10.330;2023-02-28T03:56:45;-2.90;1.00
3912;DHT22;1971;51.778;10.330;2023-02-28T03:59:22;-3.00;1.00
3912;DHT22;1971;51.778;10.330;2023-02-28T04:01:53;-2.70;1.00
3912;DHT22;1971;51.778;10.330;2023-02-28T04:04:25;-2.70;1.00
3912;DHT22;1971;51.778;10.330;2023-02-28T04:07:01;-2.70;1.00
3912;DHT22;1971;51.778;10.330;2023-02-28T04:09:35;-2.60;1.00
3912;DHT22;1971;51.778;10.330;2023-02-28T04:12:05;-2.50;1.00
3912;DHT22;1971;51.778;10.330;2023-02-28T04:14:35;-2.50;1.00
3912;DHT22;1971;51.778;10.330;2023-02-28T04:17:05;-2.50;1.00
3912;DHT22;1971;51.778;10.330;2023-02-28T04:19:35;-2.40;1.00
3912;DHT22;1971;51.778;10.330;2023-02-28T04:22:05;-2.70;1.00
3912;DHT22;1971;51.778;10.330;2023-02-28T04:24:38;-2.50;1.00
3912;DHT22;1971;51.778;10.330;2023-02-28T04:27:09;-2.50;1.00
3912;DHT22;1971;51.778;10.330;2023-02-28T04:29:39;-2.50;1.00
3912;DHT22;1971;51.778;10.330;2023-02-28T04:32:11;-2.70;1.00
3912;DHT22;1971;51.778;10.330;2023-02-28T04:34:41;-2.50;1.00
3912;DHT22;1971;51.778;10.330;2023-02-28T04:37:11;-2.30;1.00
3912;DHT22;1971;51.778;10.330;2023-02-28T04:39:44;-2.30;1.00
3912;DHT22;1971;51.778;10.330;2023-02-28T04:42:15;-2.30;1.00
3912;DHT22;1971;51.778;10.330;2023-02-28T04:44:45;-2.40;1.00
3912;DHT22;1971;51.778;10.330;2023-02-28T04:47:15;-2.20;1.00
3912;DHT22;1971;51.778;10.330;2023-02-28T04:49:45;-2.60;1.00
3912;DHT22;1971;51.778;10.330;2023-02-28T04:52:16;-2.30;1.00
3912;DHT22;1971;51.778;10.330;2023-02-28T04:54:49;-2.30;1.00
3912;DHT22;1971;51.778;10.330;2023-02-28T04:57:19;-2.30;1.00
3912;DHT22;1971;51.778;10.330;2023-02-28T04:59:49;-2.50;1.00
3912;DHT22;1971;51.778;10.330;2023-02-28T05:02:19;-2.40;1.00
3912;DHT22;1971;51.778;10.330;2023-02-28T05:04:51;-2.40;1.00
3912;DHT22;1971;51.778;10.330;2023-02-28T05:07:21;-2.70;1.00
3912;DHT22;1971;51.778;10.330;2023-02-28T05:09:53;-2.50;1.00
3912;DHT22;1971;51.778;10.330;2023-02-28T05:12:24;-2.50;1.00
3912;DHT22;1971;51.778;10.330;2023-02-28T05:14:54;-2.50;1.00
3912;DHT22;1971;51.778;10.330;2023-02-28T05:17:24;-2.50;1.00
3912;DHT22;1971;51.778;10.330;2023-02-28T05:19:53;-2.70;1.00
3912;DHT22;1971;51.778;10.330;2023-02-28T05:22:36;-2.70;1.00
3912;DHT22;1971;51.778;10.330;2023-02-28T05:25:10;-2.80;1.00
3912;DHT22;1971;51.778;10.330;2023-02-28T05:27:42;-2.70;1.00
3912;DHT22;1971;51.778;10.330;2023-02-28T05:30:12;-2.80;1.00
3912;DHT22;1971;51.778;10.330;2023-02-28T05:32:42;-2.90;1.00
3912;DHT22;1971;51.778;10.330;2023-02-28T05:35:12;-3.00;1.00
3912;DHT22;1971;51.778;10.330;2023-02-28T05:37:42;-3.50;1.00
3912;DHT22;1971;51.778;10.330;2023-02-28T05:40:15;-3.10;1.00
3912;DHT22;1971;51.778;10.330;2023-02-28T05:42:47;-3.60;1.00
3912;DHT22;1971;51.778;10.330;2023-02-28T05:45:19;-3.80;1.00
3912;DHT22;1971;51.778;10.330;2023-02-28T05:47:50;-3.60;1.00
3912;DHT22;1971;51.778;10.330;2023-02-28T05:50:22;-3.90;1.00
3912;DHT22;1971;51.778;10.330;2023-02-28T05:52:52;-4.30;1.00
3912;DHT22;1971;51.778;10.330;2023-02-28T05:55:25;-4.10;1.00
3912;DHT22;1971;51.778;10.330;2023-02-28T05:57:55;-4.60;1.00
3912;DHT22;1971;51.778;10.330;2023-02-28T06:00:25;-4.50;1.00
3912;DHT22;1971;51.778;10.330;2023-02-28T06:02:55;-4.50;1.00
3912;DHT22;1971;51.778;10.330;2023-02-28T06:05:28;-4.60;1.00
3912;DHT22;1971;51.778;10.330;2023-02-28T06:07:58;-4.70;1.00
3912;DHT22;1971;51.778;10.330;2023-02-28T06:10:30;-4.70;1.00
3912;DHT22;1971;51.778;10.330;2023-02-28T06:13:01;-4.80;1.00
3912;DHT22;1971;51.778;10.330;2023-02-28T06:15:32;-4.50;1.00
3912;DHT22;1971;51.778;10.330;2023-02-28T06:18:02;-4.20;1.00
3912;DHT22;1971;51.778;10.330;2023-02-28T06:20:33;-4.50;1.00
3912;DHT22;1971;51.778;10.330;2023-02-28T06:23:03;-4.30;1.00
3912;DHT22;1971;51.778;10.330;2023-02-28T06:25:35;-4.00;1.00
3912;DHT22;1971;51.778;10.330;2023-02-28T06:28:06;-4.30;1.00
3912;DHT22;1971;51.778;10.330;2023-02-28T06:30:36;-4.10;1.00
3912;DHT22;1971;51.778;10.330;2023-02-28T06:33:06;-4.00;1.00
3912;DHT22;1971;51.778;10.330;2023-02-28T06:35:36;-4.30;1.00
3912;DHT22;1971;51.778;10.330;2023-02-28T06:38:06;-4.00;1.00
3912;DHT22;1971;51.778;10.330;2023-02-28T06:40:40;-4.10;1.00
3912;DHT22;1971;51.778;10.330;2023-02-28T06:43:10;-4.00;1.00
3912;DHT22;1971;51.778;10.330;2023-02-28T06:45:42;-4.30;1.00
3912;DHT22;1971;51.778;10.330;2023-02-28T06:48:12;-4.40;1.00
3912;DHT22;1971;51.778;10.330;2023-02-28T06:50:42;-3.90;1.00
3912;DHT22;1971;51.778;10.330;2023-02-28T06:53:13;-4.10;1.00
3912;DHT22;1971;51.778;10.330;2023-02-28T06:55:46;-4.00;1.00
3912;DHT22;1971;51.778;10.330;2023-02-28T06:58:16;-4.30;1.00
3912;DHT22;1971;51.778;10.330;2023-02-28T07:00:51;-3.90;1.00
3912;DHT22;1971;51.778;10.330;2023-02-28T07:03:21;-3.90;1.00
3912;DHT22;1971;51.778;10.330;2023-02-28T07:05:54;-4.40;1.00
3912;DHT22;1971;51.778;10.330;2023-02-28T07:08:24;-4.30;1.00
3912;DHT22;1971;51.778;10.330;2023-02-28T07:10:57;-4.40;1.00
3912;DHT22;1971;51.778;10.330;2023-02-28T07:13:28;-4.40;1.00
3912;DHT22;1971;51.778;10.330;2023-02-28T07:16:00;-4.30;1.00
3912;DHT22;1971;51.778;10.330;2023-02-28T07:18:31;-3.90;1.00
3912;DHT22;1971;51.778;10.330;2023-02-28T07:21:02;-4.10;1.00
3912;DHT22;1971;51.778;10.330;2023-02-28T07:23:32;-3.80;1.00
3912;DHT22;1971;51.778;10.330;2023-02-28T07:26:05;-3.40;1.00
3912;DHT22;1971;51.778;10.330;2023-02-28T07:28:38;-3.50;1.00
3912;DHT22;1971;51.778;10.330;2023-02-28T07:31:09;-3.60;1.00
3912;DHT22;1971;51.778;10.330;2023-02-28T07:33:41;-3.70;1.00
3912;DHT22;1971;51.778;10.330;2023-02-28T07:36:13;-3.10;1.00
3912;DHT22;1971;51.778;10.330;2023-02-28T07:38:47;-3.10;1.00
3912;DHT22;1971;51.778;10.330;2023-02-28T07:41:21;-3.00;1.00
3912;DHT22;1971;51.778;10.330;2023-02-28T07:43:55;-2.70;1.00
3912;DHT22;1971;51.778;10.330;2023-02-28T07:46:26;-2.70;1.00
3912;DHT22;1971;51.778;10.330;2023-02-28T07:49:03;-2.50;1.00
3912;DHT22;1971;51.778;10.330;2023-02-28T07:51:34;-2.50;1.00
3912;DHT22;1971;51.778;10.330;2023-02-28T07:54:04;-2.30;1.00
3912;DHT22;1971;51.778;10.330;2023-02-28T07:56:37;-2.20;1.00
3912;DHT22;1971;51.778;10.330;2023-02-28T07:59:07;-2.30;1.00
3912;DHT22;1971;51.778;10.330;2023-02-28T08:01:37;-1.60;1.00
3912;DHT22;1971;51.778;10.330;2023-02-28T08:04:07;-1.10;1.00
3912;DHT22;1971;51.778;10.330;2023-02-28T08:06:36;-0.70;1.00
3912;DHT22;1971;51.778;10.330;2023-02-28T08:09:06;0.20;1.00
3912;DHT22;1971;51.778;10.330;2023-02-28T08:11:39;0.70;1.00
3912;DHT22;1971;51.778;10.330;2023-02-28T08:14:09;0.60;1.00
3912;DHT22;1971;51.778;10.330;2023-02-28T08:16:39;0.60;1.00
3912;DHT22;1971;51.778;10.330;2023-02-28T08:19:09;1.00;1.00
3912;DHT22;1971;51.778;10.330;2023-02-28T08:21:40;0.50;1.00
3912;DHT22;1971;51.778;10.330;2023-02-28T08:24:09;0.60;1.00
3912;DHT22;1971;51.778;10.330;2023-02-28T08:26:42;0.40;1.00
3912;DHT22;1971;51.778;10.330;2023-02-28T08:29:12;0.20;1.00
3912;DHT22;1971;51.778;10.330;2023-02-28T08:31:43;0.40;1.00
3912;DHT22;1971;51.778;10.330;2023-02-28T08:34:15;0.70;1.00
3912;DHT22;1971;51.778;10.330;2023-02-28T08:36:45;0.70;1.00
3912;DHT22;1971;51.778;10.330;2023-02-28T08:39:15;1.20;1.00
3912;DHT22;1971;51.778;10.330;2023-02-28T08:41:49;0.80;1.00
3912;DHT22;1971;51.778;10.330;2023-02-28T08:44:33;1.00;1.00
3912;DHT22;1971;51.778;10.330;2023-02-28T08:47:03;0.90;1.00
3912;DHT22;1971;51.778;10.330;2023-02-28T08:49:33;1.00;1.00
3912;DHT22;1971;51.778;10.330;2023-02-28T08:52:04;0.90;1.00
3912;DHT22;1971;51.778;10.330;2023-02-28T08:54:35;1.00;1.00
3912;DHT22;1971;51.778;10.330;2023-02-28T08:57:08;1.10;1.00
3912;DHT22;1971;51.778;10.330;2023-02-28T08:59:38;1.50;99.90
3912;DHT22;1971;51.778;10.330;2023-02-28T09:02:09;1.10;99.90
3912;DHT22;1971;51.778;10.330;2023-02-28T09:04:41;1.30;99.90
3912;DHT22;1971;51.778;10.330;2023-02-28T09:07:12;1.20;99.90
3912;DHT22;1971;51.778;10.330;2023-02-28T09:09:43;0.90;99.90
3912;DHT22;1971;51.778;10.330;2023-02-28T09:12:27;1.00;99.90
3912;DHT22;1971;51.778;10.330;2023-02-28T09:14:57;1.30;99.90
3912;DHT22;1971;51.778;10.330;2023-02-28T09:17:27;1.00;99.90
3912;DHT22;1971;51.778;10.330;2023-02-28T09:19:57;1.30;99.90
3912;DHT22;1971;51.778;10.330;2023-02-28T09:22:27;1.10;99.90
3912;DHT22;1971;51.778;10.330;2023-02-28T09:24:57;1.40;99.90
3912;DHT22;1971;51.778;10.330;2023-02-28T09:27:30;1.20;99.90
3912;DHT22;1971;51.778;10.330;2023-02-28T09:30:00;1.50;99.90
3912;DHT22;1971;51.778;10.330;2023-02-28T09:32:30;1.20;99.90
3912;DHT22;1971;51.778;10.330;2023-02-28T09:35:00;1.10;99.90
3912;DHT22;1971;51.778;10.330;2023-02-28T09:37:30;1.00;99.90
3912;DHT22;1971;51.778;10.330;2023-02-28T09:40:00;1.00;99.90
3912;DHT22;1971;51.778;10.330;2023-02-28T09:42:34;1.00;99.90
3912;DHT22;1971;51.778;10.330;2023-02-28T09:45:11;0.90;99.90
3912;DHT22;1971;51.778;10.330;2023-02-28T09:47:45;1.30;99.90
3912;DHT22;1971;51.778;10.330;2023-02-28T09:50:27;1.30;99.90
3912;DHT22;1971;51.778;10.330;2023-02-28T09:53:02;1.40;99.90
3912;DHT22;1971;51.778;10.330;2023-02-28T09:55:39;1.50;99.90
3912;DHT22;1971;51.778;10.330;2023-02-28T09:58:20;1.30;99.90
3912;DHT22;1971;51.778;10.330;2023-02-28T10:00:58;1.40;99.90
3912;DHT22;1971;51.778;10.330;2023-02-28T10:03:33;1.80;99.90
3912;DHT22;1971;51.778;10.330;2023-02-28T10:06:09;1.60;99.90
3912;DHT22;1971;51.778;10.330;2023-02-28T10:08:45;1.80;99.90
3912;DHT22;1971;51.778;10.330;2023-02-28T10:11:18;1.40;99.90
3912;DHT22;1971;51.778;10.330;2023-02-28T10:13:56;1.80;99.90
3912;DHT22;1971;51.778;10.330;2023-02-28T10:16:32;1.90;99.90
3912;DHT22;1971;51.778;10.330;2023-02-28T10:19:06;2.40;99.90
3912;DHT22;1971;51.778;10.330;2023-02-28T10:21:42;2.30;99.90
3912;DHT22;1971;51.778;10.330;2023-02-28T10:24:20;2.20;99.90
3912;DHT22;1971;51.778;10.330;2023-02-28T10:26:52;2.10;99.90
3912;DHT22;1971;51.778;10.330;2023-02-28T10:29:26;2.10;99.90
3912;DHT22;1971;51.778;10.330;2023-02-28T10:31:56;2.00;99.90
3912;DHT22;1971;51.778;10.330;2023-02-28T10:34:26;1.70;99.90
3912;DHT22;1971;51.778;10.330;2023-02-28T10:36:56;1.70;99.90
3912;DHT22;1971;51.778;10.330;2023-02-28T10:39:37;1.70;99.90
3912;DHT22;1971;51.778;10.330;2023-02-28T10:42:20;1.80;99.90
3912;DHT22;1971;51.778;10.330;2023-02-28T10:45:11;1.70;99.90
3912;DHT22;1971;51.778;10.330;2023-02-28T10:47:51;1.60;99.90
3912;DHT22;1971;51.778;10.330;2023-02-28T10:50:42;1.60;99.90
3912;DHT22;1971;51.778;10.330;2023-02-28T10:53:25;1.70;99.90
3912;DHT22;1971;51.778;10.330;2023-02-28T10:56:05;1.80;99.90
3912;DHT22;1971;51.778;10.330;2023-02-28T10:58:51;1.80;99.90
3912;DHT22;1971;51.778;10.330;2023-02-28T11:01:26;1.70;99.90
3912;DHT22;1971;51.778;10.330;2023-02-28T11:04:04;1.70;99.90
3912;DHT22;1971;51.778;10.330;2023-02-28T11:06:46;1.60;99.90
3912;DHT22;1971;51.778;10.330;2023-02-28T11:09:22;2.00;99.90
3912;DHT22;1971;51.778;10.330;2023-02-28T11:11:53;1.90;99.90
3912;DHT22;1971;51.778;10.330;2023-02-28T11:14:25;2.20;99.90
3912;DHT22;1971;51.778;10.330;2023-02-28T11:17:02;2.00;99.90
3912;DHT22;1971;51.778;10.330;2023-02-28T11:19:45;1.80;99.90
3912;DHT22;1971;51.778;10.330;2023-02-28T11:22:19;1.80;99.90
3912;DHT22;1971;51.778;10.330;2023-02-28T11:24:52;1.80;99.90
3912;DHT22;1971;51.778;10.330;2023-02-28T11:27:40;2.10;99.90
3912;DHT22;1971;51.778;10.330;2023-02-28T11:30:29;2.40;99.90
3912;DHT22;1971;51.778;10.330;2023-02-28T11:33:20;2.80;99.90
3912;DHT22;1971;51.778;10.330;2023-02-28T11:35:52;2.60;99.90
3912;DHT22;1971;51.778;10.330;2023-02-28T11:38:26;2.50;99.90
3912;DHT22;1971;51.778;10.330;2023-02-28T11:41:06;2.50;99.90
3912;DHT22;1971;51.778;10.330;2023-02-28T11:43:51;2.90;99.90
3912;DHT22;1971;51.778;10.330;2023-02-28T11:46:29;2.90;99.90
3912;DHT22;1971;51.778;10.330;2023-02-28T11:49:18;2.90;99.90
3912;DHT22;1971;51.778;10.330;2023-02-28T11:51:53;3.10;99.90
3912;DHT22;1971;51.778;10.330;2023-02-28T11:54:50;3.10;99.90
3912;DHT22;1971;51.778;10.330;2023-02-28T11:57:41;2.90;99.90
3912;DHT22;1971;51.778;10.330;2023-02-28T12:00:31;3.20;99.90
3912;DHT22;1971;51.778;10.330;2023-02-28T12:03:15;3.20;99.90
3912;DHT22;1971;51.778;10.330;2023-02-28T12:05:57;2.90;99.90
3912;DHT22;1971;51.778;10.330;2023-02-28T12:08:44;3.00;99.90
3912;DHT22;1971;51.778;10.330;2023-02-28T12:11:27;3.10;99.90
3912;DHT22;1971;51.778;10.330;2023-02-28T12:14:23;3.50;99.90
3912;DHT22;1971;51.778;10.330;2023-02-28T12:17:02;4.10;99.90
3912;DHT22;1971;51.778;10.330;2023-02-28T12:19:41;4.30;99.90
3912;DHT22;1971;51.778;10.330;2023-02-28T12:22:30;4.50;99.90
3912;DHT22;1971;51.778;10.330;2023-02-28T12:28:13;4.00;99.90
3912;DHT22;1971;51.778;10.330;2023-02-28T12:30:50;3.70;99.90
3912;DHT22;1971;51.778;10.330;2023-02-28T12:33:26;3.80;99.90
3912;DHT22;1971;51.778;10.330;2023-02-28T12:35:59;3.50;99.90
3912;DHT22;1971;51.778;10.330;2023-02-28T12:38:37;3.70;99.90
3912;DHT22;1971;51.778;10.330;2023-02-28T12:41:12;3.80;99.90
3912;DHT22;1971;51.778;10.330;2023-02-28T12:43:46;3.80;99.90
3912;DHT22;1971;51.778;10.330;2023-02-28T12:46:21;3.80;99.90
3912;DHT22;1971;51.778;10.330;2023-02-28T12:48:55;3.50;99.90
3912;DHT22;1971;51.778;10.330;2023-02-28T12:51:26;3.10;99.90
3912;DHT22;1971;51.778;10.330;2023-02-28T12:54:07;3.50;99.90
3912;DHT22;1971;51.778;10.330;2023-02-28T12:56:46;3.70;99.90
3912;DHT22;1971;51.778;10.330;2023-02-28T12:59:24;3.70;99.90
3912;DHT22;1971;51.778;10.330;2023-02-28T13:08:30;3.80;99.90
3912;DHT22;1971;51.778;10.330;2023-02-28T13:11:23;3.70;99.90
3912;DHT22;1971;51.778;10.330;2023-02-28T13:14:02;3.50;99.90
3912;DHT22;1971;51.778;10.330;2023-02-28T13:16:53;3.70;99.90
3912;DHT22;1971;51.778;10.330;2023-02-28T13:19:25;3.80;99.90
3912;DHT22;1971;51.778;10.330;2023-02-28T13:21:57;4.00;99.90
3912;DHT22;1971;51.778;10.330;2023-02-28T13:24:42;4.10;99.90
3912;DHT22;1971;51.778;10.330;2023-02-28T13:27:41;4.10;99.90
3912;DHT22;1971;51.778;10.330;2023-02-28T13:33:27;3.80;99.90
3912;DHT22;1971;51.778;10.330;2023-02-28T13:36:09;3.50;99.90
3912;DHT22;1971;51.778;10.330;2023-02-28T13:38:41;3.70;99.90
3912;DHT22;1971;51.778;10.330;2023-02-28T13:44:27;3.70;99.90
3912;DHT22;1971;51.778;10.330;2023-02-28T13:47:19;4.00;99.90
3912;DHT22;1971;51.778;10.330;2023-02-28T13:49:52;4.10;99.90
3912;DHT22;1971;51.778;10.330;2023-02-28T13:52:24;4.70;99.90
3912;DHT22;1971;51.778;10.330;2023-02-28T13:55:14;4.30;99.90
3912;DHT22;1971;51.778;10.330;2023-02-28T13:58:00;4.00;99.90
3912;DHT22;1971;51.778;10.330;2023-02-28T14:00:47;4.00;99.90
3912;DHT22;1971;51.778;10.330;2023-02-28T14:03:37;4.00;99.90
3912;DHT22;1971;51.778;10.330;2023-02-28T14:06:22;4.10;99.90
3912;DHT22;1971;51.778;10.330;2023-02-28T14:08:57;4.30;99.90
3912;DHT22;1971;51.778;10.330;2023-02-28T14:11:32;4.20;99.90
3912;DHT22;1971;51.778;10.330;2023-02-28T14:14:04;4.70;99.90
3912;DHT22;1971;51.778;10.330;2023-02-28T14:16:45;4.70;99.90
3912;DHT22;1971;51.778;10.330;2023-02-28T14:19:21;5.00;99.90
3912;DHT22;1971;51.778;10.330;2023-02-28T14:22:02;4.50;99.90
3912;DHT22;1971;51.778;10.330;2023-02-28T14:25:04;4.10;99.90
3912;DHT22;1971;51.778;10.330;2023-02-28T14:27:44;4.40;99.90
3912;DHT22;1971;51.778;10.330;2023-02-28T14:30:42;4.40;99.90
3912;DHT22;1971;51.778;10.330;2023-02-28T14:33:32;4.00;99.90
3912;DHT22;1971;51.778;10.330;2023-02-28T14:36:10;3.80;99.90
3912;DHT22;1971;51.778;10.330;2023-02-28T14:38:46;3.80;99.90
3912;DHT22;1971;51.778;10.330;2023-02-28T14:41:22;3.90;99.90
3912;DHT22;1971;51.778;10.330;2023-02-28T14:43:57;3.80;99.90
3912;DHT22;1971;51.778;10.330;2023-02-28T14:46:32;3.50;99.90
3912;DHT22;1971;51.778;10.330;2023-02-28T14:49:13;3.40;99.90
3912;DHT22;1971;51.778;10.330;2023-02-28T14:51:45;3.20;99.90
3912;DHT22;1971;51.778;10.330;2023-02-28T14:54:20;3.20;99.90
3912;DHT22;1971;51.778;10.330;2023-02-28T14:56:52;3.20;99.90
3912;DHT22;1971;51.778;10.330;2023-02-28T14:59:33;2.90;99.90
3912;DHT22;1971;51.778;10.330;2023-02-28T15:02:20;2.90;99.90
3912;DHT22;1971;51.778;10.330;2023-02-28T15:04:58;2.80;99.90
3912;DHT22;1971;51.778;10.330;2023-02-28T15:07:28;2.60;99.90
3912;DHT22;1971;51.778;10.330;2023-02-28T15:10:08;2.60;99.90
3912;DHT22;1971;51.778;10.330;2023-02-28T15:12:40;2.60;99.90
3912;DHT22;1971;51.778;10.330;2023-02-28T15:15:15;2.70;99.90
3912;DHT22;1971;51.778;10.330;2023-02-28T15:17:48;2.50;99.90
3912;DHT22;1971;51.778;10.330;2023-02-28T15:20:22;2.60;99.90
3912;DHT22;1971;51.778;10.330;2023-02-28T15:22:55;2.60;99.90
3912;DHT22;1971;51.778;10.330;2023-02-28T15:25:26;2.50;99.90
3912;DHT22;1971;51.778;10.330;2023-02-28T15:27:57;2.60;99.90
3912;DHT22;1971;51.778;10.330;2023-02-28T15:30:28;2.70;99.90
3912;DHT22;1971;51.778;10.330;2023-02-28T15:33:05;2.80;99.90
3912;DHT22;1971;51.778;10.330;2023-02-28T15:35:41;2.40;99.90
3912;DHT22;1971;51.778;10.330;2023-02-28T15:38:15;2.40;99.90
3912;DHT22;1971;51.778;10.330;2023-02-28T15:40:49;2.20;99.90
3912;DHT22;1971;51.778;10.330;2023-02-28T15:43:25;2.60;99.90
3912;DHT22;1971;51.778;10.330;2023-02-28T15:45:58;2.20;99.90
3912;DHT22;1971;51.778;10.330;2023-02-28T15:48:31;2.20;99.90
3912;DHT22;1971;51.778;10.330;2023-02-28T15:51:14;2.20;99.90
3912;DHT22;1971;51.778;10.330;2023-02-28T15:53:49;2.30;99.90
3912;DHT22;1971;51.778;10.330;2023-02-28T15:56:23;2.10;99.90
3912;DHT22;1971;51.778;10.330;2023-02-28T15:58:54;2.00;99.90
3912;DHT22;1971;51.778;10.330;2023-02-28T16:01:27;2.10;99.90
3912;DHT22;1971;51.778;10.330;2023-02-28T16:04:01;1.70;99.90
3912;DHT22;1971;51.778;10.330;2023-02-28T16:06:41;1.60;99.90
3912;DHT22;1971;51.778;10.330;2023-02-28T16:09:13;1.60;99.90
3912;DHT22;1971;51.778;10.330;2023-02-28T16:11:45;1.40;99.90
3912;DHT22;1971;51.778;10.330;2023-02-28T16:14:18;1.30;99.90
3912;DHT22;1971;51.778;10.330;2023-02-28T16:16:51;0.90;99.90
3912;DHT22;1971;51.778;10.330;2023-02-28T16:19:22;1.10;99.90
3912;DHT22;1971;51.778;10.330;2023-02-28T16:21:55;0.70;99.90
3912;DHT22;1971;51.778;10.330;2023-02-28T16:24:25;1.00;99.90
3912;DHT22;1971;51.778;10.330;2023-02-28T16:26:56;1.10;99.90
3912;DHT22;1971;51.778;10.330;2023-02-28T16:29:29;0.80;99.90
3912;DHT22;1971;51.778;10.330;2023-02-28T16:31:59;0.60;99.90
3912;DHT22;1971;51.778;10.330;2023-02-28T16:34:30;0.60;99.90
3912;DHT22;1971;51.778;10.330;2023-02-28T16:37:03;0.60;99.90
3912;DHT22;1971;51.778;10.330;2023-02-28T16:39:34;0.40;99.90
3912;DHT22;1971;51.778;10.330;2023-02-28T16:42:04;0.30;99.90
3912;DHT22;1971;51.778;10.330;2023-02-28T16:44:35;0.20;99.90
3912;DHT22;1971;51.778;10.330;2023-02-28T16:47:05;0.40;99.90
3912;DHT22;1971;51.778;10.330;2023-02-28T16:49:35;0.20;99.90
3912;DHT22;1971;51.778;10.330;2023-02-28T16:52:08;0.40;99.90
3912;DHT22;1971;51.778;10.330;2023-02-28T16:54:39;0.10;99.90
3912;DHT22;1971;51.778;10.330;2023-02-28T16:57:18;0.10;99.90
3912;DHT22;1971;51.778;10.330;2023-02-28T16:59:49;0.10;99.90
3912;DHT22;1971;51.778;10.330;2023-02-28T17:02:19;0.10;99.90
3912;DHT22;1971;51.778;10.330;2023-02-28T17:04:52;-0.10;99.90
3912;DHT22;1971;51.778;10.330;2023-02-28T17:07:25;-0.30;99.90
3912;DHT22;1971;51.778;10.330;2023-02-28T17:09:55;-0.30;99.90